AirNav   ATP
 
 340 users online  

17A Trigger Gap Airport
Berryville, Arkansas, USA

GOING TO BERRYVILLE?


FAA INFORMATION EFFECTIVE 06 DECEMBER 2018

Location

FAA Identifier: 17A
Lat/Long: 36-19-40.0000N / 093-37-19.0000W
36-19.666667N / 093-37.316667W
36.3277778 / -93.6219444
(estimated)
Elevation: 1630 ft. / 497 m (estimated)
From city: 5 miles SW of BERRYVILLE, AR
Time zone: UTC -6 (UTC -5 during Daylight Saving Time)
Zip code: 72616

Airport Operations

Airport use: Open to the public
Activation date: 09/2017
Control tower: no
ARTCC: MEMPHIS CENTER
FSS: JONESBORO FLIGHT SERVICE STATION
NOTAMs facility: JBR (NOTAM-D service not available)
Attendance: UNATTND
Segmented circle: no

Airport Communications

CTAF: 122.9

Nearby radio navigation aids

VOR radial/distance  VOR name  Freq  Var
HROr268/19.8HARRISON VOR/DME112.5004E
RZCr075/24.6RAZORBACK VORTAC116.4004E

Airport Services

Runway Information

Runway 10/28

Dimensions: 3000 x 75 ft. / 914 x 23 m
Surface: turf
RUNWAY 10  RUNWAY 28
Traffic pattern: rightright

Airport Ownership and Management from official FAA records

Ownership: Publicly-owned
Owner: RECREATIONAL AVIATION FOUNDATION
1711 W COLLEGE STREET
BOZEMAN, MT 59715
Phone 406-582-1723
Manager: CHAD COX
3404 CARDINAL LANE
BENTONVILLE, AR 72712
Phone 501-732-0658

Instrument Procedures

There are no published instrument procedures at 17A.

Some nearby airports with instrument procedures:

4M1 - Carroll County Airport (3 nm N)
H34 - Huntsville Municipal Airport (16 nm SW)
KHRO - Boone County Airport (23 nm E)
KROG - Rogers Executive Airport - Carter Field (24 nm W)
KBBG - Branson Airport (24 nm NE)
 
Loc | Ops | Rwys | IFR | FBO | Links
Com | Nav | Svcs | Stats | Notes


 
Aerial photo
WARNING: Photo may not be current or correct
Aerial photo of 17A (Trigger Gap Airport)
Photo by JD Lawson
Photo taken 21-Jan-2017
looking southeast.

Do you have a better or more recent aerial photo of Trigger Gap Airport that you would like to share? If so, please send us your photo.

 
Airport distance calculator
Flying to Trigger Gap Airport? Find the distance to fly.

From to 17A

Sunrise and sunset
Times for 15-Dec-2018
 Local
(UTC-6)
 Zulu
(UTC)
Morning civil twilight06:5112:51
Sunrise07:2013:20
Sunset17:0023:00
Evening civil twilight17:2823:28

Current date and time
Zulu (UTC)  15-Dec-2018 08:47:09
Local (UTC-6)  15-Dec-2018 02:47:09
 
METAR
KROG 
22nm W 
150826Z AUTO 34007KT 1/2SM UP FG OVC003 02/02 A3003 RMK AO2 P0000
KHRO 
23nm E 
150753Z AUTO 31009KT 4SM RA BR OVC005 04/04 A2996 RMK AO2 SLP149 P0009 T00440044
KBBG 
24nm NE 
150835Z AUTO 32012KT 2 1/2SM RA OVC004 04/04 A2999 RMK AO2 P0014
KFWB 
25nm NE 
150815Z AUTO 32008KT 2 1/2SM -RA OVC004 03/03 A3000 RMK AO2 P0001
KASG 
26nm W 
150248Z 35013KT 2 1/2SM BR OVC003 04/04 A3005
KVBT 
29nm W 
150838Z AUTO 35009KT 1SM BR OVC003 02/02 A3005 RMK AO2 FZRANO
KFYV 
32nm SW 
150815Z AUTO 34007KT 5SM -RA BR OVC004 04/03 A3002 RMK AO2 P0000 T00390033
KXNA 
33nm W 
150753Z AUTO 34011KT 2SM BR OVC002 04/02 A3004 RMK AO2 SLP175 T00390017
KHFJ 
39nm NW 
150835Z AUTO 34009KT 1/2SM FG OVC002 01/01 A3004 RMK AO2
KSLG 
42nm W 
150837Z AUTO 34008KT 3SM BR OVC004 02/02 A3005 RMK AO2 FZRANO
TAF
KROG 
22nm W 
150539Z 1506/1606 35012KT 3/4SM BR OVC003 FM151600 34009KT P6SM SKC FM160000 32003KT P6SM SKC
KHRO 
23nm E 
150808Z 1508/1606 32012KT 4SM -SHRA BR OVC005 WS020/03043KT TEMPO 1508/1512 2SM -SHRA BR OVC003 FM151500 32012G18KT 5SM BR OVC014 WS020/03035KT FM152100 33008KT P6SM SCT015 BKN035
KBBG 
24nm NE 
150520Z 1506/1606 34011KT 2SM -RA OVC003 WS020/04035KT FM150900 34009KT 4SM BR OVC005 TEMPO 1509/1512 2SM RA BR OVC001 FM151200 33008KT 5SM BR VCSH OVC008 FM151400 33008KT P6SM BKN010 BKN045 FM151700 33009KT P6SM SCT050
NOTAMs
Click for the latest NOTAMs
NOTAMs are issued by the DoD/FAA and will open in a separate window not controlled by AirNav.

 

 
 

Would you like to see your business listed on this page?

 If your business provides an interesting product or service to pilots, flight crews, aircraft, or users of the Trigger Gap Airport, you should consider listing it here.  To start the listing process, click on the button below
 
Add a business
 

Other Pages about Trigger Gap Airport

Update a link
 
Copyright © AirNav, LLC. All rights reserved. Privacy Policy  Contact